Esperanza — PD6464 — position and weather

sailwx.info

Track history (hours):
 
Tides and Currents Weather Stations Pressure Air Temp Water Temp Dewpoint Dewpoint Depression Visibility Wind Speed Wind Dir Waves Ship Positions

Esperanza

Last reported at 2017-Apr-26 20:04 UTC. Time now 2017-Apr-29 13:40 UTC.
Position N 15°01' W 017°31'.

Length 72 m; draft 4.8 m.

Type: Other ship. MMSI: 244690000.

Date/timePositionNaut miles runAvg speedWind from/ knotsBaromVisibWave heightAir tempDewpointWater temp
2017-Apr-26 20:04N 15°01' W 017°31'1 9.0
2017-Apr-26 19:56N 15°02' W 017°30'5 9.3
2017-Apr-26 19:24N 15°02' W 017°25'4 9.5
2017-Apr-26 18:59N 15°03' W 017°21'23 0.5
2017-Apr-24 19:25N 14°41' W 017°23'2 1.2
2017-Apr-24 17:36N 14°40' W 017°25'0 0.0
2017-Apr-24 17:22N 14°40' W 017°25'0 0.0
2017-Apr-24 17:00N 14°40' W 017°25'0 0.0
2017-Apr-24 16:14N 14°40' W 017°25'0 0.0
2017-Apr-24 16:00N 14°40' W 017°25'0 0.0
2017-Apr-24 11:18N 14°40' W 017°25'0 0.0
2017-Apr-24 10:59N 14°40' W 017°25'0 0.0
2017-Apr-24 10:29N 14°40' W 017°25'0 0.0
2017-Apr-24 10:00N 14°40' W 017°25'0 0.0
2017-Apr-24 09:29N 14°40' W 017°25'0 0.0
2017-Apr-24 09:00N 14°40' W 017°25'0 0.0
2017-Apr-24 08:27N 14°40' W 017°25'0 0.0
2017-Apr-24 08:01N 14°40' W 017°25'0 0.0
2017-Apr-24 07:30N 14°40' W 017°25'0 0.0
2017-Apr-24 07:00N 14°40' W 017°25'0 0.0
2017-Apr-24 06:30N 14°40' W 017°25'0 0.0
2017-Apr-24 06:00N 14°40' W 017°25'0 0.0
2017-Apr-24 05:30N 14°40' W 017°25'0 0.0
2017-Apr-24 05:00N 14°40' W 017°25'0 0.0
2017-Apr-24 04:30N 14°40' W 017°25'0 0.0
2017-Apr-24 04:00N 14°40' W 017°25'0 0.0
2017-Apr-24 03:30N 14°40' W 017°25'0 0.0
2017-Apr-24 03:00N 14°40' W 017°25'0 0.0
2017-Apr-24 02:30N 14°40' W 017°25'0 0.0
2017-Apr-24 02:00N 14°40' W 017°25'0 0.0
2017-Apr-24 01:30N 14°40' W 017°25'0 0.0
2017-Apr-24 00:59N 14°40' W 017°25'0 0.0
2017-Apr-24 00:29N 14°40' W 017°25'0 0.0
2017-Apr-24 00:00N 14°40' W 017°25'0 0.0
2017-Apr-23 23:30N 14°40' W 017°25'0 0.0
2017-Apr-23 23:00N 14°40' W 017°25'0 0.0
2017-Apr-23 22:30N 14°40' W 017°25'0 0.0
2017-Apr-23 22:00N 14°40' W 017°25'0 0.0
2017-Apr-23 21:30N 14°40' W 017°25'0 0.0
2017-Apr-23 21:00N 14°40' W 017°25'0 0.0
2017-Apr-23 20:30N 14°40' W 017°25'0 0.0
2017-Apr-23 20:00N 14°40' W 017°25'0 0.0
2017-Apr-23 19:30N 14°40' W 017°25'0 0.0
2017-Apr-23 19:00N 14°40' W 017°25'0 0.0
2017-Apr-23 18:30N 14°40' W 017°25'0 0.0
2017-Apr-23 18:00N 14°40' W 017°25'0 0.0
2017-Apr-23 17:30N 14°40' W 017°25'0 0.0
2017-Apr-23 17:00N 14°40' W 017°25'0 0.0
2017-Apr-23 16:30N 14°40' W 017°25'0 0.0
2017-Apr-23 15:59N 14°40' W 017°25'0 0.0
2017-Apr-23 15:30N 14°40' W 017°25'0 0.0
2017-Apr-23 15:00N 14°40' W 017°25'0 0.0
2017-Apr-23 13:59N 14°40' W 017°25'0 0.0
2017-Apr-23 13:29N 14°40' W 017°25'0 0.0
2017-Apr-23 12:55N 14°40' W 017°25'0 0.0
2017-Apr-23 12:29N 14°40' W 017°25'0 0.0
2017-Apr-23 11:33N 14°40' W 017°25'0 0.0
2017-Apr-23 11:30N 14°40' W 017°25'0 0.0
2017-Apr-23 11:00N 14°40' W 017°25'0 0.0
2017-Apr-23 10:30N 14°40' W 017°25'2 4.5
2017-Apr-23 10:00N 14°40' W 017°23'3 4.8
2017-Apr-23 09:21N 14°37' W 017°23'300 6.5
2017-Apr-21 11:27N 09°48' W 015°59'69 9.1
2017-Apr-21 03:51N 09°10' W 014°60'3 9.1
2017-Apr-21 03:30N 09°09' W 014°57'6 9.2
2017-Apr-21 02:52N 09°06' W 014°52'3 9.1
2017-Apr-21 02:30N 09°05' W 014°49'6 9.1
2017-Apr-21 01:54N 09°02' W 014°44'4 9.0
2017-Apr-21 01:24N 09°00' W 014°40'3 8.7
2017-Apr-21 01:00N 08°59' W 014°36'5 8.7
2017-Apr-21 00:25N 08°57' W 014°32'4 8.9
2017-Apr-21 00:00N 08°55' W 014°29'6 8.6
2017-Apr-20 23:19N 08°52' W 014°24'3 8.8
2017-Apr-20 23:00N 08°51' W 014°21'11 8.8
2017-Apr-20 21:45N 08°45' W 014°11'2 9.2
2017-Apr-20 21:30N 08°44' W 014°09'58 1.8
2017-Apr-19 13:49N 08°30' W 013°12'12 0.4
2017-Apr-18 06:47N 08°29' W 013°24'1 2.6
2017-Apr-18 06:30N 08°29' W 013°25'1 3.0
2017-Apr-18 06:00N 08°30' W 013°27'3 5.5
2017-Apr-18 05:30N 08°30' W 013°29'3 6.6
2017-Apr-18 05:00N 08°30' W 013°33'3 6.7
2017-Apr-18 04:30N 08°30' W 013°36'4 6.9
2017-Apr-18 03:56N 08°30' W 013°40'3 6.9
2017-Apr-18 03:30N 08°30' W 013°43'17 6.4
2017-Apr-18 00:48N 08°35' W 013°60'2 5.9
2017-Apr-18 00:30N 08°36' W 014°01'3 6.0
2017-Apr-18 00:00N 08°37' W 014°04'3 6.0
2017-Apr-17 23:30N 08°38' W 014°07'3 6.3
2017-Apr-17 23:00N 08°39' W 014°10'3 6.6
2017-Apr-17 22:30N 08°40' W 014°13'3 6.4
2017-Apr-17 22:00N 08°41' W 014°16'  
Track history (hours):
 
Tides and Currents Weather Stations Pressure Air Temp Water Temp Dewpoint Dewpoint Depression Visibility Wind Speed Wind Dir Waves Ship Positions

Esperanza

Last reported at 2017-Apr-26 20:04 UTC. Time now 2017-Apr-29 13:40 UTC.
Position N 15°01' W 017°31'.

Length 72 m; draft 4.8 m.

Type: Other ship. MMSI: 244690000.

Date/timePositionNaut miles runAvg speedWind from/ knotsBaromVisibWave heightAir tempDewpointWater temp
2017-Apr-26 20:04N 15°01' W 017°31'1 9.0
2017-Apr-26 19:56N 15°02' W 017°30'5 9.3
2017-Apr-26 19:24N 15°02' W 017°25'4 9.5
2017-Apr-26 18:59N 15°03' W 017°21'23 0.5
2017-Apr-24 19:25N 14°41' W 017°23'2 1.2
2017-Apr-24 17:36N 14°40' W 017°25'0 0.0
2017-Apr-24 17:22N 14°40' W 017°25'0 0.0
2017-Apr-24 17:00N 14°40' W 017°25'0 0.0
2017-Apr-24 16:14N 14°40' W 017°25'0 0.0
2017-Apr-24 16:00N 14°40' W 017°25'0 0.0
2017-Apr-24 11:18N 14°40' W 017°25'0 0.0
2017-Apr-24 10:59N 14°40' W 017°25'0 0.0
2017-Apr-24 10:29N 14°40' W 017°25'0 0.0
2017-Apr-24 10:00N 14°40' W 017°25'0 0.0
2017-Apr-24 09:29N 14°40' W 017°25'0 0.0
2017-Apr-24 09:00N 14°40' W 017°25'0 0.0
2017-Apr-24 08:27N 14°40' W 017°25'0 0.0
2017-Apr-24 08:01N 14°40' W 017°25'0 0.0
2017-Apr-24 07:30N 14°40' W 017°25'0 0.0
2017-Apr-24 07:00N 14°40' W 017°25'0 0.0
2017-Apr-24 06:30N 14°40' W 017°25'0 0.0
2017-Apr-24 06:00N 14°40' W 017°25'0 0.0
2017-Apr-24 05:30N 14°40' W 017°25'0 0.0
2017-Apr-24 05:00N 14°40' W 017°25'0 0.0
2017-Apr-24 04:30N 14°40' W 017°25'0 0.0
2017-Apr-24 04:00N 14°40' W 017°25'0 0.0
2017-Apr-24 03:30N 14°40' W 017°25'0 0.0
2017-Apr-24 03:00N 14°40' W 017°25'0 0.0
2017-Apr-24 02:30N 14°40' W 017°25'0 0.0
2017-Apr-24 02:00N 14°40' W 017°25'0 0.0
2017-Apr-24 01:30N 14°40' W 017°25'0 0.0
2017-Apr-24 00:59N 14°40' W 017°25'0 0.0
2017-Apr-24 00:29N 14°40' W 017°25'0 0.0
2017-Apr-24 00:00N 14°40' W 017°25'0 0.0
2017-Apr-23 23:30N 14°40' W 017°25'0 0.0
2017-Apr-23 23:00N 14°40' W 017°25'0 0.0
2017-Apr-23 22:30N 14°40' W 017°25'0 0.0
2017-Apr-23 22:00N 14°40' W 017°25'0 0.0
2017-Apr-23 21:30N 14°40' W 017°25'0 0.0
2017-Apr-23 21:00N 14°40' W 017°25'0 0.0
2017-Apr-23 20:30N 14°40' W 017°25'0 0.0
2017-Apr-23 20:00N 14°40' W 017°25'0 0.0
2017-Apr-23 19:30N 14°40' W 017°25'0 0.0
2017-Apr-23 19:00N 14°40' W 017°25'0 0.0
2017-Apr-23 18:30N 14°40' W 017°25'0 0.0
2017-Apr-23 18:00N 14°40' W 017°25'0 0.0
2017-Apr-23 17:30N 14°40' W 017°25'0 0.0
2017-Apr-23 17:00N 14°40' W 017°25'0 0.0
2017-Apr-23 16:30N 14°40' W 017°25'0 0.0
2017-Apr-23 15:59N 14°40' W 017°25'0 0.0
2017-Apr-23 15:30N 14°40' W 017°25'0 0.0
2017-Apr-23 15:00N 14°40' W 017°25'0 0.0
2017-Apr-23 13:59N 14°40' W 017°25'0 0.0
2017-Apr-23 13:29N 14°40' W 017°25'0 0.0
2017-Apr-23 12:55N 14°40' W 017°25'0 0.0
2017-Apr-23 12:29N 14°40' W 017°25'0 0.0
2017-Apr-23 11:33N 14°40' W 017°25'0 0.0
2017-Apr-23 11:30N 14°40' W 017°25'0 0.0
2017-Apr-23 11:00N 14°40' W 017°25'0 0.0
2017-Apr-23 10:30N 14°40' W 017°25'2 4.5
2017-Apr-23 10:00N 14°40' W 017°23'3 4.8
2017-Apr-23 09:21N 14°37' W 017°23'300 6.5
2017-Apr-21 11:27N 09°48' W 015°59'69 9.1
2017-Apr-21 03:51N 09°10' W 014°60'3 9.1
2017-Apr-21 03:30N 09°09' W 014°57'6 9.2
2017-Apr-21 02:52N 09°06' W 014°52'3 9.1
2017-Apr-21 02:30N 09°05' W 014°49'6 9.1
2017-Apr-21 01:54N 09°02' W 014°44'4 9.0
2017-Apr-21 01:24N 09°00' W 014°40'3 8.7
2017-Apr-21 01:00N 08°59' W 014°36'5 8.7
2017-Apr-21 00:25N 08°57' W 014°32'4 8.9
2017-Apr-21 00:00N 08°55' W 014°29'6 8.6
2017-Apr-20 23:19N 08°52' W 014°24'3 8.8
2017-Apr-20 23:00N 08°51' W 014°21'11 8.8
2017-Apr-20 21:45N 08°45' W 014°11'2 9.2
2017-Apr-20 21:30N 08°44' W 014°09'58 1.8
2017-Apr-19 13:49N 08°30' W 013°12'12 0.4
2017-Apr-18 06:47N 08°29' W 013°24'1 2.6
2017-Apr-18 06:30N 08°29' W 013°25'1 3.0
2017-Apr-18 06:00N 08°30' W 013°27'3 5.5
2017-Apr-18 05:30N 08°30' W 013°29'3 6.6
2017-Apr-18 05:00N 08°30' W 013°33'3 6.7
2017-Apr-18 04:30N 08°30' W 013°36'4 6.9
2017-Apr-18 03:56N 08°30' W 013°40'3 6.9
2017-Apr-18 03:30N 08°30' W 013°43'17 6.4
2017-Apr-18 00:48N 08°35' W 013°60'2 5.9
2017-Apr-18 00:30N 08°36' W 014°01'3 6.0
2017-Apr-18 00:00N 08°37' W 014°04'3 6.0
2017-Apr-17 23:30N 08°38' W 014°07'3 6.3
2017-Apr-17 23:00N 08°39' W 014°10'3 6.6
2017-Apr-17 22:30N 08°40' W 014°13'3 6.4
2017-Apr-17 22:00N 08°41' W 014°16'  

Dump ship's entire track history